createdAt,value
2022-08-30T00:01:06.589Z,1.00
2022-08-30T00:03:48.766Z,1.00
2022-08-30T00:06:22.481Z,1.00
2022-08-30T00:08:56.417Z,0.20
2022-08-30T00:11:31.682Z,1.00
2022-08-30T00:14:03.332Z,0.00
2022-08-30T00:16:35.983Z,0.00
2022-08-30T00:19:07.909Z,0.00
2022-08-30T00:21:40.953Z,1.00
2022-08-30T00:24:12.219Z,0.00
2022-08-30T00:26:41.793Z,0.80
2022-08-30T00:29:15.961Z,0.00
2022-08-30T00:31:48.464Z,1.00
2022-08-30T00:34:22.647Z,1.00
2022-08-30T00:36:54.041Z,1.00
2022-08-30T00:39:25.039Z,1.00
2022-08-30T00:41:56.526Z,1.00
2022-08-30T00:44:27.510Z,1.00
2022-08-30T00:46:59.720Z,0.60
2022-08-30T00:49:32.727Z,0.60
2022-08-30T00:52:09.609Z,0.00
2022-08-30T00:54:42.063Z,1.00
2022-08-30T00:57:14.301Z,1.00
2022-08-30T00:59:53.785Z,1.00
2022-08-30T01:02:24.691Z,0.00
2022-08-30T01:04:56.686Z,1.00
2022-08-30T01:07:27.174Z,0.40
2022-08-30T01:09:59.800Z,1.00
2022-08-30T01:12:36.446Z,1.00
2022-08-30T01:15:11.113Z,1.00
2022-08-30T01:17:51.288Z,0.60
2022-08-30T01:21:04.057Z,0.00
2022-08-30T01:23:35.647Z,0.80
2022-08-30T01:26:11.093Z,0.00
2022-08-30T01:28:42.703Z,0.00
2022-08-30T01:31:12.359Z,0.00
2022-08-30T01:33:44.433Z,0.00
2022-08-30T01:36:23.755Z,0.40
2022-08-30T01:38:56.175Z,0.00
2022-08-30T01:41:37.414Z,1.00
2022-08-30T01:44:14.960Z,1.00
2022-08-30T01:46:50.323Z,0.00
2022-08-30T01:49:27.428Z,1.00
2022-08-30T01:52:00.481Z,0.40
2022-08-30T01:54:38.511Z,1.00
2022-08-30T01:57:17.423Z,1.00
2022-08-30T01:59:51.594Z,0.60
2022-08-30T02:02:31.769Z,0.40
2022-08-30T02:05:02.048Z,0.00
2022-08-30T02:07:34.008Z,1.60
2022-08-30T02:10:07.441Z,1.80
2022-08-30T02:12:37.728Z,2.00
2022-08-30T02:15:08.959Z,2.00
2022-08-30T02:17:39.571Z,1.00
2022-08-30T02:20:12.936Z,2.00
2022-08-30T02:22:48.134Z,1.00
2022-08-30T02:25:21.330Z,1.00
2022-08-30T02:27:51.963Z,1.00
2022-08-30T02:30:23.633Z,1.20
2022-08-30T02:32:53.774Z,2.40
2022-08-30T02:35:26.384Z,2.00
2022-08-30T02:37:57.486Z,1.80
2022-08-30T02:40:31.508Z,2.00
2022-08-30T02:43:01.609Z,3.00
2022-08-30T02:45:34.750Z,3.20
2022-08-30T02:48:08.560Z,4.00
2022-08-30T02:50:49.521Z,3.60
2022-08-30T02:53:20.358Z,4.00
2022-08-30T02:55:51.960Z,5.00
2022-08-30T02:58:26.318Z,3.80
2022-08-30T03:01:00.801Z,3.80
2022-08-30T03:03:38.044Z,3.80
2022-08-30T03:06:12.927Z,4.00
2022-08-30T03:08:44.654Z,3.20
2022-08-30T03:11:17.074Z,3.20
2022-08-30T03:13:50.852Z,3.60
2022-08-30T03:16:20.336Z,4.00
2022-08-30T03:18:52.063Z,4.60
2022-08-30T03:21:26.576Z,3.00
2022-08-30T03:23:56.612Z,4.00
2022-08-30T03:26:30.509Z,3.20
2022-08-30T03:29:02.973Z,2.20
2022-08-30T03:31:37.776Z,2.80
2022-08-30T03:34:24.524Z,2.00
2022-08-30T03:36:57.899Z,2.00
2022-08-30T03:39:30.308Z,3.00
2022-08-30T03:42:02.835Z,4.00
2022-08-30T03:44:34.840Z,4.00
2022-08-30T03:47:08.919Z,4.20
2022-08-30T03:49:40.989Z,3.00
2022-08-30T03:52:11.359Z,3.60
2022-08-30T03:54:43.786Z,4.80
2022-08-30T03:57:20.268Z,3.40
2022-08-30T03:59:55.489Z,4.60
2022-08-30T04:02:26.397Z,5.00
2022-08-30T04:05:02.281Z,5.60
2022-08-30T04:07:37.474Z,5.40
2022-08-30T04:10:10.156Z,4.20
2022-08-30T04:12:40.054Z,4.60
2022-08-30T04:15:13.268Z,5.00
2022-08-30T04:17:47.276Z,5.20
2022-08-30T04:20:21.479Z,5.20
2022-08-30T04:22:52.313Z,5.80
2022-08-30T04:25:25.275Z,5.60
2022-08-30T04:28:00.363Z,4.00
2022-08-30T04:30:32.100Z,5.60
2022-08-30T04:33:06.235Z,5.40
2022-08-30T04:35:37.310Z,6.20
2022-08-30T04:38:08.236Z,5.00
2022-08-30T04:40:43.114Z,6.00
2022-08-30T04:43:15.164Z,5.20
2022-08-30T04:45:46.591Z,6.00
2022-08-30T04:48:18.975Z,4.20
2022-08-30T04:50:52.537Z,6.40
2022-08-30T04:53:22.808Z,5.20
2022-08-30T04:55:54.522Z,5.40
2022-08-30T04:58:25.613Z,6.40
2022-08-30T05:00:56.792Z,4.40
2022-08-30T05:03:28.691Z,8.00
2022-08-30T05:06:03.408Z,6.00
2022-08-30T05:08:35.753Z,4.80
2022-08-30T05:11:10.904Z,7.60
2022-08-30T05:13:42.249Z,5.00
2022-08-30T05:16:19.106Z,4.00
2022-08-30T05:18:50.938Z,5.00
2022-08-30T05:21:24.813Z,6.60
2022-08-30T05:24:03.630Z,4.80
2022-08-30T05:26:37.084Z,5.40
2022-08-30T05:29:07.355Z,5.00
2022-08-30T05:31:39.349Z,6.40
2022-08-30T05:34:12.859Z,6.00
2022-08-30T05:36:43.046Z,5.60
2022-08-30T05:39:14.951Z,6.00
2022-08-30T05:41:48.170Z,3.00
2022-08-30T05:44:25.698Z,6.75
2022-08-30T05:46:56.772Z,5.00
2022-08-30T05:49:26.668Z,5.60
2022-08-30T05:51:58.210Z,5.00
2022-08-30T05:54:29.992Z,4.50
2022-08-30T05:57:00.646Z,5.80
2022-08-30T05:59:34.992Z,5.50
2022-08-30T06:02:08.911Z,5.00
2022-08-30T06:04:41.251Z,5.75
2022-08-30T06:07:15.810Z,5.50
2022-08-30T06:09:53.011Z,4.75
2022-08-30T06:12:25.631Z,5.75
2022-08-30T06:14:57.054Z,4.25
2022-08-30T06:17:28.664Z,5.00
2022-08-30T06:20:02.125Z,5.00
2022-08-30T06:22:36.348Z,5.00
2022-08-30T06:25:10.315Z,2.50
2022-08-30T06:27:40.134Z,6.25
2022-08-30T06:30:12.296Z,7.00
2022-08-30T06:32:44.445Z,5.50
2022-08-30T06:35:18.329Z,7.25
2022-08-30T06:37:51.091Z,6.25
2022-08-30T06:40:24.070Z,5.00
2022-08-30T06:42:56.385Z,6.50
2022-08-30T06:45:28.747Z,6.50
2022-08-30T06:48:01.862Z,7.00
2022-08-30T06:50:33.130Z,6.75
2022-08-30T06:53:06.756Z,6.25
2022-08-30T06:55:37.786Z,6.50
2022-08-30T06:58:12.573Z,8.00
2022-08-30T07:00:44.076Z,5.60
2022-08-30T07:03:18.172Z,8.00
2022-08-30T07:05:50.208Z,7.20
2022-08-30T07:08:20.949Z,9.00
2022-08-30T07:10:55.680Z,6.20
2022-08-30T07:13:29.756Z,4.60
2022-08-30T07:16:02.190Z,5.50
2022-08-30T07:18:55.573Z,6.40
2022-08-30T07:21:32.291Z,6.00
2022-08-30T07:24:02.722Z,6.75
2022-08-30T07:26:42.645Z,7.00
2022-08-30T07:29:15.244Z,7.25
2022-08-30T07:31:45.694Z,7.25
2022-08-30T07:34:16.169Z,7.75
2022-08-30T07:36:51.224Z,8.00
2022-08-30T07:39:23.622Z,8.00
2022-08-30T07:41:55.338Z,5.25
2022-08-30T07:44:27.105Z,8.60
2022-08-30T07:46:59.271Z,7.25
2022-08-30T07:49:32.027Z,7.00
2022-08-30T07:52:02.893Z,7.25
2022-08-30T07:54:34.223Z,7.75
2022-08-30T07:57:04.082Z,7.25
2022-08-30T07:59:36.331Z,9.00
2022-08-30T08:02:10.826Z,7.50
2022-08-30T08:04:42.514Z,8.25
2022-08-30T08:07:12.817Z,9.00
2022-08-30T08:09:42.474Z,9.00
2022-08-30T08:12:13.852Z,9.25
2022-08-30T08:14:47.568Z,9.25
2022-08-30T08:17:20.136Z,8.00
2022-08-30T08:19:54.668Z,8.75
2022-08-30T08:22:27.703Z,8.00
2022-08-30T08:25:00.229Z,7.00
2022-08-30T08:27:33.250Z,8.00
2022-08-30T08:30:05.612Z,8.25
2022-08-30T08:32:38.215Z,9.00
2022-08-30T08:35:13.300Z,9.25
2022-08-30T08:37:44.648Z,10.75
2022-08-30T08:40:21.856Z,8.25
2022-08-30T08:43:01.478Z,9.25
2022-08-30T08:45:59.210Z,8.00
2022-08-30T08:49:02.875Z,8.00
2022-08-30T08:51:57.162Z,9.00
2022-08-30T08:54:42.691Z,8.25
2022-08-30T08:57:18.515Z,8.75
2022-08-30T08:59:55.762Z,6.50
2022-08-30T09:02:32.505Z,9.25
2022-08-30T09:05:06.688Z,8.25
2022-08-30T09:07:45.753Z,9.25
2022-08-30T09:10:23.002Z,9.25
2022-08-30T09:13:02.624Z,7.50
2022-08-30T09:15:37.341Z,11.00
2022-08-30T09:18:12.982Z,10.25
2022-08-30T09:20:57.507Z,11.00
2022-08-30T09:23:35.400Z,12.00
2022-08-30T09:26:08.531Z,10.75
2022-08-30T09:28:52.800Z,11.75
2022-08-30T09:31:28.714Z,9.25
2022-08-30T09:34:07.711Z,10.25
2022-08-30T09:36:44.572Z,9.50
2022-08-30T09:39:33.075Z,11.00
2022-08-30T09:42:26.725Z,11.75
2022-08-30T09:45:18.573Z,13.00
2022-08-30T09:47:49.834Z,12.75
2022-08-30T09:50:25.642Z,11.25
2022-08-30T09:53:13.628Z,12.00
2022-08-30T09:56:11.532Z,13.00
2022-08-30T09:59:08.837Z,9.00
2022-08-30T10:01:51.202Z,13.00
2022-08-30T10:04:37.833Z,8.75
2022-08-30T10:07:20.274Z,13.25
2022-08-30T10:10:15.645Z,10.50
2022-08-30T10:13:13.834Z,11.75
2022-08-30T10:15:56.770Z,6.50
2022-08-30T10:18:40.584Z,13.50
2022-08-30T10:21:28.669Z,11.75
2022-08-30T10:24:13.007Z,11.75
2022-08-30T10:27:02.726Z,11.75
2022-08-30T10:29:53.681Z,13.75
2022-08-30T10:32:54.488Z,11.00
2022-08-30T10:35:34.060Z,10.75
2022-08-30T10:38:13.946Z,9.50
2022-08-30T10:41:13.878Z,8.50
2022-08-30T10:44:11.205Z,10.75
2022-08-30T10:46:54.172Z,10.50
2022-08-30T10:49:27.506Z,11.25
2022-08-30T10:52:33.002Z,11.75
2022-08-30T10:55:19.007Z,10.50
2022-08-30T10:57:51.103Z,10.75
2022-08-30T11:00:56.083Z,10.75
2022-08-30T11:03:48.624Z,10.50
2022-08-30T11:06:52.607Z,11.25
2022-08-30T11:09:48.147Z,10.50
2022-08-30T11:12:56.435Z,10.50
2022-08-30T11:15:31.477Z,10.00
2022-08-30T11:18:15.813Z,11.50
2022-08-30T11:20:57.344Z,10.75
2022-08-30T11:23:33.449Z,11.00
2022-08-30T11:26:06.444Z,11.75
2022-08-30T11:28:44.066Z,11.00
2022-08-30T11:31:19.796Z,13.00
2022-08-30T11:34:01.066Z,13.00
2022-08-30T11:36:37.314Z,12.00
2022-08-30T11:39:32.931Z,10.50
2022-08-30T11:42:38.681Z,13.25
2022-08-30T11:45:29.480Z,12.50
2022-08-30T11:48:04.831Z,12.75
2022-08-30T11:51:07.746Z,11.50
2022-08-30T11:54:00.115Z,10.00
2022-08-30T11:56:52.295Z,11.25
2022-08-30T11:59:50.354Z,11.75
2022-08-30T12:02:59.213Z,11.75
2022-08-30T12:05:44.248Z,13.00
2022-08-30T12:08:31.678Z,12.50
2022-08-30T12:11:27.857Z,11.00
2022-08-30T12:13:58.461Z,13.00
2022-08-30T12:17:10.284Z,12.00
2022-08-30T12:19:41.406Z,9.00
2022-08-30T12:22:18.968Z,11.00
2022-08-30T12:24:55.412Z,14.25
2022-08-30T12:27:32.509Z,12.75
2022-08-30T12:30:09.936Z,12.00
2022-08-30T12:32:52.072Z,11.50
2022-08-30T12:35:29.785Z,10.50
2022-08-30T12:38:10.206Z,10.25
2022-08-30T12:40:50.441Z,10.25
2022-08-30T12:43:40.530Z,9.50
2022-08-30T12:46:18.487Z,14.75
2022-08-30T12:48:50.047Z,12.75
2022-08-30T12:51:38.553Z,12.00
2022-08-30T12:54:24.220Z,13.00
2022-08-30T12:57:14.043Z,10.00
2022-08-30T12:59:59.490Z,12.00
2022-08-30T13:02:53.515Z,9.25
2022-08-30T13:05:45.533Z,9.25
2022-08-30T13:08:28.874Z,11.50
2022-08-30T13:11:22.376Z,11.00
2022-08-30T13:14:19.550Z,10.00
2022-08-30T13:16:52.048Z,12.25
2022-08-30T13:19:44.825Z,8.25
2022-08-30T13:22:31.250Z,9.50
2022-08-30T13:25:04.147Z,11.50
2022-08-30T13:27:38.661Z,10.75
2022-08-30T13:30:15.483Z,12.00
2022-08-30T13:32:45.200Z,10.00
2022-08-30T13:35:15.510Z,10.00
2022-08-30T13:37:47.619Z,8.75
2022-08-30T13:40:24.283Z,6.00
2022-08-30T13:42:55.123Z,10.00
2022-08-30T13:45:42.276Z,9.25
2022-08-30T13:48:15.714Z,7.80
2022-08-30T13:50:47.927Z,13.25
2022-08-30T13:53:51.861Z,10.50
2022-08-30T13:56:10.089Z,10.25
2022-08-30T13:58:49.130Z,10.25
2022-08-30T14:01:20.767Z,12.75
2022-08-30T14:07:11.869Z,11.00
2022-08-30T14:09:32.269Z,9.75
2022-08-30T14:12:04.158Z,6.75
2022-08-30T14:14:43.231Z,13.50
2022-08-30T14:17:17.242Z,11.25
2022-08-30T14:19:48.317Z,12.00
2022-08-30T14:22:22.144Z,13.00
2022-08-30T14:24:57.177Z,12.50
2022-08-30T14:27:31.961Z,13.00
2022-08-30T14:30:02.966Z,13.00
2022-08-30T14:32:34.887Z,10.00
2022-08-30T14:35:06.516Z,11.25
2022-08-30T14:37:42.850Z,10.75
2022-08-30T14:40:14.706Z,8.00
2022-08-30T14:42:48.609Z,6.75
2022-08-30T14:45:21.271Z,10.75
2022-08-30T14:47:53.278Z,9.00
2022-08-30T14:50:24.344Z,12.25
2022-08-30T14:52:57.709Z,10.25
2022-08-30T14:55:33.829Z,11.75
2022-08-30T14:58:09.200Z,11.50
2022-08-30T15:00:40.337Z,11.75
2022-08-30T15:03:14.424Z,11.60
2022-08-30T15:05:53.329Z,13.00
2022-08-30T15:08:22.946Z,11.00
2022-08-30T15:10:55.019Z,12.25
2022-08-30T15:13:25.003Z,11.00
2022-08-30T15:15:54.949Z,12.00
2022-08-30T15:18:27.069Z,13.00
2022-08-30T15:20:57.614Z,11.80
2022-08-30T15:23:28.569Z,13.60
2022-08-30T15:26:02.815Z,12.40
2022-08-30T15:28:34.367Z,12.00
2022-08-30T15:31:08.782Z,12.00
2022-08-30T15:33:41.463Z,14.00
2022-08-30T15:36:14.657Z,13.00
2022-08-30T15:38:47.949Z,11.00
2022-08-30T15:41:20.155Z,13.00
2022-08-30T15:43:52.397Z,12.00
2022-08-30T15:46:35.562Z,9.40
2022-08-30T15:49:17.689Z,9.80
2022-08-30T15:51:49.323Z,10.20
2022-08-30T15:54:26.339Z,10.00
2022-08-30T15:57:00.490Z,12.00
2022-08-30T15:59:34.568Z,8.60
2022-08-30T16:02:07.563Z,10.60
2022-08-30T16:04:42.325Z,14.00
2022-08-30T16:07:15.360Z,15.20
2022-08-30T16:09:47.945Z,13.00
2022-08-30T16:12:23.692Z,11.00
2022-08-30T16:14:56.009Z,10.00
2022-08-30T16:17:27.126Z,12.80
2022-08-30T16:19:59.265Z,10.00
2022-08-30T16:22:31.646Z,9.60
2022-08-30T16:25:03.211Z,9.75
2022-08-30T16:27:34.946Z,13.40
2022-08-30T16:30:10.147Z,13.50
2022-08-30T16:32:44.062Z,13.40
2022-08-30T16:35:14.822Z,12.00
2022-08-30T16:37:45.897Z,11.00
2022-08-30T16:40:17.016Z,15.20
2022-08-30T16:42:47.587Z,13.00
2022-08-30T16:45:20.147Z,11.00
2022-08-30T16:47:53.091Z,12.40
2022-08-30T16:50:25.403Z,12.40
2022-08-30T16:52:57.236Z,12.80
2022-08-30T16:55:28.675Z,11.40
2022-08-30T16:58:02.332Z,13.00
2022-08-30T17:00:34.582Z,15.80
2022-08-30T17:03:09.720Z,13.20
2022-08-30T17:05:41.185Z,14.00
2022-08-30T17:08:15.160Z,13.80
2022-08-30T17:10:49.742Z,12.00
2022-08-30T17:13:23.320Z,14.00
2022-08-30T17:15:58.392Z,11.40
2022-08-30T17:18:30.019Z,8.40
2022-08-30T17:21:00.944Z,10.00
2022-08-30T17:23:32.845Z,6.00
2022-08-30T17:26:03.781Z,9.00
2022-08-30T17:28:34.585Z,7.80
2022-08-30T17:31:06.133Z,7.60
2022-08-30T17:33:41.750Z,6.60
2022-08-30T17:36:15.407Z,6.20
2022-08-30T17:38:46.031Z,7.40
2022-08-30T17:41:20.201Z,10.25
2022-08-30T17:43:51.057Z,10.00
2022-08-30T17:46:22.462Z,12.00
2022-08-30T17:49:01.267Z,9.50
2022-08-30T17:51:33.481Z,8.20
2022-08-30T17:54:05.756Z,5.00
2022-08-30T17:56:38.338Z,4.80
2022-08-30T17:59:09.275Z,5.20
2022-08-30T18:01:44.026Z,4.40
2022-08-30T18:04:19.404Z,4.60
2022-08-30T18:06:52.472Z,4.20
2022-08-30T18:09:25.558Z,5.00
2022-08-30T18:11:56.589Z,6.00
2022-08-30T18:14:29.691Z,6.00
2022-08-30T18:16:59.991Z,4.60
2022-08-30T18:19:33.496Z,7.00
2022-08-30T18:22:04.802Z,6.60
2022-08-30T18:24:35.341Z,7.00
2022-08-30T18:27:08.687Z,5.20
2022-08-30T18:29:40.628Z,6.00
2022-08-30T18:32:13.870Z,6.00
2022-08-30T18:34:43.689Z,7.25
2022-08-30T18:37:17.012Z,8.00
2022-08-30T18:39:46.653Z,7.00
2022-08-30T18:42:19.602Z,6.25
2022-08-30T18:44:53.088Z,7.50
2022-08-30T18:47:27.790Z,8.00
2022-08-30T18:49:58.688Z,9.00
2022-08-30T18:52:29.757Z,8.00
2022-08-30T18:55:00.231Z,9.25
2022-08-30T18:57:31.093Z,7.75
2022-08-30T19:00:07.534Z,6.50
2022-08-30T19:02:37.949Z,8.00
2022-08-30T19:05:08.435Z,5.25
2022-08-30T19:07:41.247Z,8.50
2022-08-30T19:10:14.956Z,7.00
2022-08-30T19:12:53.630Z,7.50
2022-08-30T19:15:25.672Z,6.00
2022-08-30T19:17:59.792Z,6.00
2022-08-30T19:20:31.577Z,5.60
2022-08-30T19:23:08.771Z,5.00
2022-08-30T19:25:44.218Z,5.80
2022-08-30T19:28:16.351Z,5.00
2022-08-30T19:30:48.736Z,1.00
2022-08-30T19:33:25.373Z,5.00
2022-08-30T19:35:58.680Z,6.00
2022-08-30T19:38:30.126Z,5.00
2022-08-30T19:41:02.462Z,5.00
2022-08-30T19:43:36.218Z,5.25
2022-08-30T19:46:05.669Z,4.80
2022-08-30T19:48:42.212Z,5.00
2022-08-30T19:51:17.952Z,5.00
2022-08-30T19:53:50.000Z,6.40
2022-08-30T19:56:24.303Z,6.00
2022-08-30T19:58:55.104Z,5.00
2022-08-30T20:01:33.133Z,3.00
2022-08-30T20:04:05.059Z,4.60
2022-08-30T20:06:36.502Z,5.50
2022-08-30T20:09:10.619Z,3.20
2022-08-30T20:11:45.137Z,4.75
2022-08-30T20:14:19.153Z,7.00
2022-08-30T20:16:51.138Z,5.00
2022-08-30T20:19:27.414Z,5.00
2022-08-30T20:22:07.871Z,4.40
2022-08-30T20:24:43.802Z,4.60
2022-08-30T20:27:15.767Z,5.00
2022-08-30T20:29:50.291Z,5.25
2022-08-30T20:32:23.832Z,5.20
2022-08-30T20:34:56.796Z,5.00
2022-08-30T20:37:27.965Z,6.00
2022-08-30T20:40:00.371Z,6.00
2022-08-30T20:42:32.446Z,6.20
2022-08-30T20:45:04.009Z,6.00
2022-08-30T20:47:40.440Z,5.60
2022-08-30T20:50:14.103Z,7.00
2022-08-30T20:52:45.634Z,6.25
2022-08-30T20:55:22.596Z,6.00
2022-08-30T20:57:55.272Z,8.00
2022-08-30T21:00:26.608Z,6.00
2022-08-30T21:03:00.872Z,7.50
2022-08-30T21:05:33.688Z,7.00
2022-08-30T21:08:06.441Z,5.80
2022-08-30T21:10:44.460Z,6.75
2022-08-30T21:13:15.433Z,7.00
2022-08-30T21:15:47.387Z,6.00
2022-08-30T21:18:20.198Z,6.00
2022-08-30T21:20:56.698Z,6.50
2022-08-30T21:23:27.249Z,7.00
2022-08-30T21:26:00.266Z,5.60
2022-08-30T21:28:31.633Z,5.00
2022-08-30T21:31:20.264Z,5.25
2022-08-30T21:33:52.289Z,4.75
2022-08-30T21:36:43.079Z,5.25
2022-08-30T21:39:30.983Z,5.50
2022-08-30T21:42:01.378Z,6.00
2022-08-30T21:44:31.570Z,6.00
2022-08-30T21:47:09.626Z,5.00
2022-08-30T21:49:45.557Z,5.00
2022-08-30T21:52:17.633Z,6.00
2022-08-30T21:54:50.305Z,5.40
2022-08-30T21:57:22.212Z,5.00
2022-08-30T21:59:55.582Z,5.00
2022-08-30T22:02:26.429Z,4.25
2022-08-30T22:04:57.789Z,5.00
2022-08-30T22:07:31.531Z,6.00
2022-08-30T22:10:01.687Z,5.25
2022-08-30T22:12:33.132Z,5.00
2022-08-30T22:15:07.841Z,6.00
2022-08-30T22:17:38.944Z,6.50
2022-08-30T22:20:15.122Z,7.75
2022-08-30T22:22:50.594Z,6.25
2022-08-30T22:25:20.804Z,6.00
2022-08-30T22:27:54.053Z,6.00
2022-08-30T22:30:24.145Z,6.50
2022-08-30T22:32:57.473Z,5.00
2022-08-30T22:35:27.479Z,6.25
2022-08-30T22:38:01.023Z,6.75
2022-08-30T22:40:36.378Z,5.00
2022-08-30T22:43:09.847Z,5.50
2022-08-30T22:45:43.402Z,5.25
2022-08-30T22:48:14.173Z,4.75
2022-08-30T22:50:45.407Z,5.00
2022-08-30T22:53:15.921Z,5.00
2022-08-30T22:55:46.397Z,6.00
2022-08-30T22:58:19.710Z,7.00
2022-08-30T23:00:55.236Z,6.25
2022-08-30T23:03:26.471Z,3.50
2022-08-30T23:05:58.127Z,5.00
2022-08-30T23:08:28.608Z,7.50
2022-08-30T23:10:59.478Z,6.00
2022-08-30T23:13:29.941Z,8.25
2022-08-30T23:16:06.619Z,5.00
2022-08-30T23:18:46.746Z,6.25
2022-08-30T23:21:26.146Z,5.75
2022-08-30T23:24:17.042Z,5.75
2022-08-30T23:27:07.800Z,7.00
2022-08-30T23:29:56.394Z,5.25
2022-08-30T23:32:46.403Z,4.25
2022-08-30T23:35:36.485Z,6.75
2022-08-30T23:38:26.489Z,6.00
2022-08-30T23:41:14.711Z,4.50
2022-08-30T23:44:04.658Z,3.00
2022-08-30T23:46:54.647Z,4.25
2022-08-30T23:49:47.280Z,4.75
2022-08-30T23:52:38.155Z,5.50
2022-08-30T23:55:28.658Z,6.00
2022-08-30T23:58:20.401Z,5.25
